Flight Track Log - Related Links

Times and Time Zones

All times are in EDT time to prevent confusion due to time zone crossing. See the SWA2624 flight status page for this flight to view local times or setup timezone preferences in your user account.

Time Position Orientation Groundspeed Altitude Reporting Facility
EDT Latitude Longitude Course Direction KTS MPH feet Rate Location/Type
Mon 09:38:39 AM 47.4278 -122.3078 181° South 171 197 1,400  Level Seattle Center
Mon 09:39:45 AM 47.3675 -122.3089 181° South 210 242 4,100 2,952 Climbing Seattle Center
Mon 09:40:45 AM 47.2953 -122.3097 180° South 255 293 7,600 3,372 Climbing Seattle Center
Mon 09:41:46 AM 47.2183 -122.3056 178° South 276 318 10,900 2,727 Climbing Seattle Center
Mon 09:42:46 AM 47.1403 -122.2272 146° Southeast 344 396 13,100 2,529 Climbing Seattle Center
Mon 09:43:47 AM 47.0506 -122.1583 152° Southeast 364 419 16,000 2,607 Climbing Seattle Center
Mon 09:44:48 AM 46.9531 -122.1194 165° South 387 445 18,400 2,281 Climbing Seattle Center
Mon 09:45:48 AM 46.8556 -122.0394 151° Southeast 407 468 20,600 2,231 Climbing Seattle Center
Mon 09:46:49 AM 46.7558 -121.9500 148° Southeast 424 488 22,900 2,132 Climbing Seattle Center
Mon 09:47:49 AM 46.6539 -121.8622 149° Southeast 431 496 24,900 2,231 Climbing Seattle Center
Mon 09:48:50 AM 46.5297 -121.7536 149° Southeast 438 504 27,400 2,213 Climbing Seattle Center
Mon 09:49:51 AM 46.4278 -121.6644 149° Southeast 435 501 29,400 1,884 Climbing Seattle Center
Mon 09:50:51 AM 46.3233 -121.5744 149° Southeast 434 499 31,200 1,686 Climbing Seattle Center
Mon 09:51:52 AM 46.2197 -121.4850 149° Southeast 435 501 32,800 1,525 Climbing Seattle Center
Mon 09:52:53 AM 46.1172 -121.3953 149° Southeast 432 497 34,300 1,537 Climbing Seattle Center
Mon 09:53:53 AM 46.0133 -121.3081 150° Southeast 433 498 35,900 1,488 Climbing Seattle Center
Mon 09:54:54 AM 45.9125 -121.2214 149° Southeast 427 491 37,300 1,230 Climbing Seattle Center
Mon 09:55:55 AM 45.8119 -121.1383 150° Southeast 420 483 38,400 793 Climbing Seattle Center
Mon 09:56:55 AM 45.7111 -121.0531 149° Southeast 421 484 38,900 298 Climbing Seattle Center
Mon 09:57:56 AM 45.6097 -120.9667 149° Southeast 424 488 39,000 50 Climbing Seattle Center
Mon 09:58:56 AM 45.5078 -120.8819 150° Southeast 425 489 39,000  Level Seattle Center
Mon 09:59:57 AM 45.4053 -120.7967 150° Southeast 427 491 39,000  Level Seattle Center
Mon 10:00:58 AM 45.3031 -120.7131 150° Southeast 426 490 39,000  Level Seattle Center
Mon 10:01:58 AM 45.2022 -120.6283 149° Southeast 424 488 39,000  Level Seattle Center
Mon 10:02:59 AM 45.1014 -120.5447 150° Southeast 424 488 39,000  Level Seattle Center
Mon 10:04:00 AM 44.9997 -120.4636 151° Southeast 423 487 39,000  Level Seattle Center
Mon 10:05:00 AM 44.8797 -120.3658 150° Southeast 421 484 39,000  Level Seattle Center
Mon 10:06:01 AM 44.7792 -120.2844 150° Southeast 422 486 39,000  Level Seattle Center
Mon 10:07:02 AM 44.6786 -120.2031 150° Southeast 423 487 39,000  Level Seattle Center
Mon 10:08:03 AM 44.5769 -120.1214 150° Southeast 425 489 39,000  Level Seattle Center
Mon 10:09:03 AM 44.4739 -120.0397 151° Southeast 427 491 39,000  Level Seattle Center
Mon 10:10:04 AM 44.3706 -119.9578 150° Southeast 429 494 39,000  Level Seattle Center
Mon 10:11:05 AM 44.2681 -119.8753 150° Southeast 428 493 39,000  Level Seattle Center
Mon 10:12:06 AM 44.1642 -119.7928 150° Southeast 431 496 39,000  Level Seattle Center
Mon 10:13:06 AM 44.0606 -119.7114 151° Southeast 431 496 39,000  Level Seattle Center
Mon 10:14:07 AM 43.9561 -119.6297 151° Southeast 432 497 39,000  Level Seattle Center
Mon 10:15:08 AM 43.8517 -119.5492 151° Southeast 431 496 39,000  Level Seattle Center
Mon 10:16:09 AM 43.7475 -119.4669 150° Southeast 432 497 39,000  Level Seattle Center
Mon 10:17:09 AM 43.6219 -119.3703 151° Southeast 432 497 39,000  Level Seattle Center
Mon 10:18:10 AM 43.5175 -119.2897 151° Southeast 433 498 39,000  Level Seattle Center
Mon 10:19:11 AM 43.4125 -119.2103 151° Southeast 431 496 39,000  Level Seattle Center
Mon 10:20:12 AM 43.3083 -119.1292 150° Southeast 432 497 39,000  Level Seattle Center
Mon 10:21:13 AM 43.2044 -119.0517 151° Southeast 439 505 39,000  Level Seattle Center
Mon 10:22:14 AM 43.0878 -118.9631 151° Southeast 433 498 39,000  Level Seattle Center
Mon 10:23:14 AM 42.9853 -118.8861 151° Southeast 438 504 39,000  Level Seattle Center
Mon 10:23:30 AM 42.9692 -118.8739 151° Southeast 435 501 39,000  Level Salt Lake Center
Mon 10:24:32 AM 42.8633 -118.7942 151° Southeast 435 501 39,000  Level Salt Lake Center
Mon 10:25:33 AM 42.7353 -118.6978 151° Southeast 437 503 39,000  Level Salt Lake Center
Mon 10:26:35 AM 42.6281 -118.6186 151° Southeast 439 505 39,000  Level Salt Lake Center
Mon 10:27:37 AM 42.5186 -118.5383 152° Southeast 442 509 39,000  Level Salt Lake Center
Mon 10:28:38 AM 42.4153 -118.4614 151° Southeast 445 512 39,000  Level Salt Lake Center
Mon 10:29:40 AM 42.2939 -118.3717 151° Southeast 444 511 39,000  Level Salt Lake Center
Mon 10:30:41 AM 42.1906 -118.2964 152° Southeast 443 510 39,000  Level Salt Lake Center
Mon 10:31:43 AM 42.0686 -118.2083 152° Southeast 444 511 39,000  Level Salt Lake Center
Mon 10:32:45 AM 41.9639 -118.1331 152° Southeast 445 512 39,000  Level Salt Lake Center
Mon 10:33:46 AM 41.8614 -118.0583 151° Southeast 441 507 39,000  Level Salt Lake Center
Mon 10:34:48 AM 41.7531 -117.9453 142° Southeast 440 506 39,000  Level Salt Lake Center
Mon 10:35:50 AM 41.6669 -117.8358 136° Southeast 445 512 39,000  Level Salt Lake Center
Mon 10:36:51 AM 41.5661 -117.7089 137° Southeast 446 513 39,000  Level Salt Lake Center
Mon 10:37:53 AM 41.4789 -117.6017 137° Southeast 446 513 39,000  Level Salt Lake Center
Mon 10:38:55 AM 41.3789 -117.4767 137° Southeast 442 509 39,000  Level Salt Lake Center
Mon 10:39:57 AM 41.2917 -117.3697 137° Southeast 444 511 39,000  Level Salt Lake Center
Mon 10:40:58 AM 41.2036 -117.2606 137° Southeast 450 518 39,000  Level Salt Lake Center
Mon 10:42:00 AM 41.1014 -117.1344 137° Southeast 448 516 39,000  Level Salt Lake Center
Mon 10:43:02 AM 41.0131 -117.0264 137° Southeast 450 518 39,000  Level Salt Lake Center
Mon 10:44:03 AM 40.9081 -116.9003 138° Southeast 453 521 39,000  Level Salt Lake Center
Mon 10:45:05 AM 40.8189 -116.7914 137° Southeast 453 521 39,000  Level Salt Lake Center
Mon 10:46:07 AM 40.7303 -116.6833 137° Southeast 451 519 39,000  Level Salt Lake Center
Mon 10:47:09 AM 40.6242 -116.5564 138° Southeast 454 522 39,000  Level Salt Lake Center
Mon 10:48:10 AM 40.5328 -116.4481 138° Southeast 457 526 39,000  Level Salt Lake Center
Mon 10:49:12 AM 40.4275 -116.3208 137° Southeast 458 527 39,000  Level Salt Lake Center
Mon 10:50:14 AM 40.3364 -116.2119 138° Southeast 458 527 39,000  Level Salt Lake Center
Mon 10:51:16 AM 40.2431 -116.1042 139° Southeast 461 531 39,000  Level Salt Lake Center
Mon 10:52:18 AM 40.1381 -115.9764 137° Southeast 462 532 39,000  Level Salt Lake Center
Mon 10:53:20 AM 40.0461 -115.8672 138° Southeast 464 534 39,000  Level Salt Lake Center
Mon 10:54:22 AM 39.9372 -115.7411 138° Southeast 466 536 39,000  Level Salt Lake Center
Mon 10:55:24 AM 39.8417 -115.6350 140° Southeast 470 541 39,000  Level Salt Lake Center
Mon 10:56:25 AM 39.7336 -115.5081 138° Southeast 467 537 39,000  Level Salt Lake Center
Mon 10:57:27 AM 39.6394 -115.4003 139° Southeast 470 541 39,000  Level Salt Lake Center
Mon 10:58:29 AM 39.5322 -115.2719 137° Southeast 470 541 39,000  Level Salt Lake Center
Mon 10:59:31 AM 39.4369 -115.1656 139° Southeast 470 541 39,000  Level Salt Lake Center
Mon 11:00:33 AM 39.3425 -115.0581 139° Southeast 473 544 39,000  Level Salt Lake Center
Mon 11:01:35 AM 39.2300 -114.9339 139° Southeast 474 545 39,000  Level Salt Lake Center
Mon 11:02:37 AM 39.1203 -114.8125 139° Southeast 476 548 39,000  Level Salt Lake Center
Mon 11:03:39 AM 39.0231 -114.6992 138° Southeast 474 545 39,000  Level Salt Lake Center
Mon 11:04:41 AM 38.9247 -114.5858 138° Southeast 476 548 39,000  Level Salt Lake Center
Mon 11:05:43 AM 38.8247 -114.4747 139° Southeast 476 548 39,000  Level Salt Lake Center
Mon 11:06:45 AM 38.7250 -114.3639 139° Southeast 474 545 39,000  Level Salt Lake Center
Mon 11:07:47 AM 38.6244 -114.2528 139° Southeast 478 550 39,000  Level Salt Lake Center
Mon 11:08:49 AM 38.5042 -114.1206 139° Southeast 476 548 39,000  Level Salt Lake Center
Mon 11:09:51 AM 38.4028 -114.0097 139° Southeast 481 554 39,000  Level Salt Lake Center
Mon 11:10:53 AM 38.3014 -113.8981 139° Southeast 482 555 39,000  Level Salt Lake Center
Mon 11:11:55 AM 38.1983 -113.7869 140° Southeast 485 558 39,000  Level Salt Lake Center
Mon 11:12:57 AM 38.0950 -113.6758 140° Southeast 487 560 39,000  Level Salt Lake Center
Mon 11:13:59 AM 37.9914 -113.5650 140° Southeast 490 564 39,000  Level Salt Lake Center
Mon 11:15:39 AM 37.7881 -113.4128 149° Southeast 475 547 39,000  Level Los Angeles Center
Mon 11:16:03 AM 37.7406 -113.3847 155° Southeast 474 545 39,000  Level Salt Lake Center
Mon 11:17:06 AM 37.6219 -113.3131 154° Southeast 476 548 39,000  Level Salt Lake Center
Mon 11:18:08 AM 37.5050 -113.2422 154° Southeast 473 544 39,000 -339 Level Salt Lake Center
Mon 11:19:10 AM 37.3886 -113.1703 154° Southeast 472 543 38,300 -848 Descending Salt Lake Center
Mon 11:19:47 AM 37.2947 -113.1139 154° Southeast 472 543 37,600 -1,030 Descending Los Angeles Center
Mon 11:20:49 AM 37.1778 -113.0425 154° Southeast 472 543 36,600 -919 Descending Los Angeles Center
Mon 11:21:51 AM 37.0603 -112.9725 155° Southeast 472 543 35,700 -774 Descending Los Angeles Center
Mon 11:22:53 AM 36.9419 -112.9022 155° Southeast 473 544 35,000 -339 Descending Los Angeles Center
Mon 11:23:55 AM 36.8233 -112.8317 155° Southeast 475 547 35,000 -48 Level Los Angeles Center
Mon 11:24:57 AM 36.6822 -112.7492 155° Southeast 470 541 34,900 -532 Descending Los Angeles Center
Mon 11:25:59 AM 36.5625 -112.6797 155° Southeast 474 545 33,900 -971 Descending Los Angeles Center
Mon 11:27:13 AM 36.4169 -112.5947 155° Southeast 481 554 32,700 -926 Descending Los Angeles Center
Mon 11:28:15 AM 36.2972 -112.5247 155° Southeast 478 550 31,800 -919 Descending Los Angeles Center
Mon 11:29:17 AM 36.1775 -112.4553 155° Southeast 476 548 30,800 -912 Descending Los Angeles Center
Mon 11:30:20 AM 36.0528 -112.4031 161° South 477 549 29,900 -864 Descending Los Angeles Center
Mon 11:31:22 AM 35.9119 -112.4089 182° South 461 531 29,000 -435 Descending Los Angeles Center
Mon 11:32:24 AM 35.7833 -112.4139 182° South 462 532 29,000  Level Los Angeles Center
Mon 11:33:26 AM 35.6533 -112.4203 182° South 466 536 29,000  Level Los Angeles Center
Mon 11:34:28 AM 35.4989 -112.4311 183° South 461 531 29,000  Level Los Angeles Center
Mon 11:35:30 AM 35.3697 -112.4322 180° South 464 534 29,000  Level Los Angeles Center
Mon 11:35:46 AM 35.3431 -112.4258 169° South 465 535 29,000  Level Albuquerque Center
Mon 11:36:48 AM 35.2164 -112.3989 170° South 463 533 29,000  Level Albuquerque Center
Mon 11:37:50 AM 35.0961 -112.3722 170° South 451 519 29,000 -145 Level Albuquerque Center
Mon 11:38:52 AM 34.9767 -112.3467 170° South 443 510 28,700 -1,463 Descending Albuquerque Center
Mon 11:39:53 AM 34.8314 -112.3147 170° South 441 507 26,000 -1,756 Descending Albuquerque Center
Mon 11:40:55 AM 34.7139 -112.2892 170° South 437 503 25,100 -1,548 Descending Albuquerque Center
Mon 11:41:57 AM 34.6006 -112.2628 169° South 427 491 22,800 -2,177 Descending Albuquerque Center
Mon 11:42:59 AM 34.4919 -112.2411 171° South 413 475 20,600 -1,548 Descending Albuquerque Center
Mon 11:44:01 AM 34.3889 -112.2167 169° South 395 455 19,600 -1,403 Descending Albuquerque Center
Mon 11:45:03 AM 34.2919 -112.1908 168° South 376 433 17,700 -2,032 Descending Albuquerque Center
Mon 11:46:05 AM 34.1783 -112.1603 167° South 355 409 15,400 -1,742 Descending Albuquerque Center
Mon 11:47:07 AM 34.0872 -112.1369 168° South 341 392 14,100 -1,355 Descending Albuquerque Center
Mon 11:48:09 AM 34.0033 -112.1447 184° South 307 353 12,600 -1,161 Descending Albuquerque Center
Mon 11:49:11 AM 33.9233 -112.1544 186° South 292 336 11,700 -726 Descending Albuquerque Center
Mon 11:50:13 AM 33.8556 -112.1667 189° South 250 288 11,100 -968 Descending Albuquerque Center
Mon 11:51:15 AM 33.7783 -112.1831 190° South 236 272 9,700 -1,161 Descending Albuquerque Center
Mon 11:52:17 AM 33.7144 -112.1956 189° South 235 270 8,700 -1,065 Descending Albuquerque Center
Mon 11:53:19 AM 33.6519 -112.2100 191° South 230 265 7,500 -1,113 Descending Albuquerque Center
Mon 11:54:21 AM 33.5875 -112.2233 190° South 234 269 6,400 -976 Descending Albuquerque Center
Mon 11:55:22 AM 33.5239 -112.2278 183° South 232 267 5,500 -927 Descending Albuquerque Center
Mon 11:56:24 AM 33.4731 -112.2056 160° South 203 234 4,500 -1,258 Descending Albuquerque Center
Mon 11:57:26 AM 33.4433 -112.1392 118° Southeast 189 217 2,900 -1,147 Descending Albuquerque Center
Mon 11:58:40 AM 33.4333 -112.0833 102° East 154 177 1,900 -811 Descending Phoenix TRACON
Mon 12:01:00 PM 33.4343 -112.0116 270° West  Level Estimated

Login

Don't have an account? Register now (free) for customized features, flight alerts, and more!